Time;durP1;ratioP1;P1;durP2;ratioP2;P2;SDS_P1;SDS_P2;PMS_P1;PMS_P2;Temp;Humidity;BMP_temperature;BMP_pressure;BME280_temperature;BME280_humidity;BME280_pressure;Samples;Min_cycle;Max_cycle;Signal;HPM_P1;HPM_P2
2022/10/17 00:00:43;;;;;;;7.88;4.22;;;;;;;7.63;50.41;100996.03;5045077;28;20109;-59
2022/10/17 00:03:09;;;;;;;5.45;4.43;;;;;;;7.61;50.22;101001.47;5053190;28;20037;-60
2022/10/17 00:05:39;;;;;;;8.35;4.93;;;;;;;7.55;50.43;100988.41;5038417;28;20041;-60
2022/10/17 00:08:05;;;;;;;6.35;4.40;;;;;;;7.54;50.57;100989.34;5034585;28;20026;-60
2022/10/17 00:10:30;;;;;;;10.60;4.65;;;;;;;7.52;50.82;100986.78;5033439;28;20459;-60
2022/10/17 00:12:56;;;;;;;8.05;4.82;;;;;;;7.50;50.83;100979.78;5045889;28;20037;-61
2022/10/17 00:15:21;;;;;;;6.90;4.70;;;;;;;7.49;50.94;100989.59;5067263;28;20109;-61
2022/10/17 00:17:47;;;;;;;7.75;4.82;;;;;;;7.48;50.82;100977.22;5050533;28;20033;-59
2022/10/17 00:20:13;;;;;;;9.65;4.80;;;;;;;7.47;50.99;100976.34;5042322;28;20041;-60
2022/10/17 00:22:39;;;;;;;7.80;4.40;;;;;;;7.45;50.88;100972.00;5033372;28;20498;-57
2022/10/17 00:25:05;;;;;;;7.85;4.40;;;;;;;7.32;51.07;100945.97;5043129;28;20029;-60
2022/10/17 00:27:34;;;;;;;12.70;4.32;;;;;;;7.53;50.93;100964.50;5049812;28;20109;-59
2022/10/17 00:29:59;;;;;;;7.65;4.70;;;;;;;7.50;50.78;100959.34;5032268;28;20029;-64
2022/10/17 00:32:25;;;;;;;7.90;4.60;;;;;;;7.49;50.97;100960.28;5051712;28;20051;-60
2022/10/17 00:34:50;;;;;;;7.38;4.55;;;;;;;7.45;51.21;100945.34;5053389;28;20029;-60
2022/10/17 00:37:16;;;;;;;7.65;4.75;;;;;;;7.44;51.02;100954.28;5048141;28;20419;-59
2022/10/17 00:39:41;;;;;;;7.40;4.45;;;;;;;7.37;51.11;100936.91;5049435;28;20471;-60
2022/10/17 00:42:11;;;;;;;8.80;4.57;;;;;;;7.36;51.25;100946.72;5052271;28;20045;-60
2022/10/17 00:44:40;;;;;;;7.65;4.30;;;;;;;7.38;51.36;100949.28;5052642;28;20041;-61
2022/10/17 00:47:10;;;;;;;7.40;4.25;;;;;;;7.39;51.32;100945.66;5052408;28;20049;-62
2022/10/17 00:49:37;;;;;;;9.35;4.47;;;;;;;7.36;51.40;100943.16;5051426;28;20112;-62
2022/10/17 00:52:14;;;;;;;8.10;4.60;;;;;;;7.39;51.16;100940.34;5052143;28;20029;-62
2022/10/17 00:54:44;;;;;;;8.20;4.57;;;;;;;7.36;51.21;100924.50;5052200;28;20037;-59
2022/10/17 00:57:11;;;;;;;8.23;4.47;;;;;;;7.31;51.43;100922.94;5042522;28;20039;-61
2022/10/17 00:59:40;;;;;;;7.63;4.88;;;;;;;7.31;51.44;100922.06;5047088;28;20032;-59
2022/10/17 01:02:12;;;;;;;10.15;4.85;;;;;;;7.37;51.24;100915.56;5045251;28;20043;-60
2022/10/17 01:04:40;;;;;;;8.10;4.55;;;;;;;7.39;51.24;100908.38;5033224;28;20033;-58
2022/10/17 01:07:06;;;;;;;10.30;4.60;;;;;;;7.33;51.36;100899.75;5032580;28;20455;-58
2022/10/17 01:09:32;;;;;;;6.20;4.15;;;;;;;7.32;51.23;100903.34;5047321;28;20040;-62
2022/10/17 01:12:15;;;;;;;11.27;5.03;;;;;;;7.40;51.32;100900.31;5044611;28;20041;-62
2022/10/17 01:14:44;;;;;;;15.65;4.85;;;;;;;7.37;51.24;100900.47;5051232;28;20037;-58
2022/10/17 01:17:33;;;;;;;9.07;4.50;;;;;;;7.36;51.50;100911.19;5052213;28;20044;-58
2022/10/17 01:20:17;;;;;;;7.78;4.32;;;;;;;7.30;51.51;100888.38;5048072;28;20131;-59
2022/10/17 01:23:14;;;;;;;9.30;4.93;;;;;;;7.27;51.48;100884.09;5044169;28;20371;-58
2022/10/17 01:25:55;;;;;;;6.47;4.55;;;;;;;7.33;51.13;100888.22;5032925;28;20124;-60
2022/10/17 01:28:49;;;;;;;9.25;4.88;;;;;;;7.22;51.72;100880.75;5050763;28;20394;-61
2022/10/17 01:31:20;;;;;;;8.40;4.50;;;;;;;7.18;51.67;100880.06;5051599;28;20094;-61
2022/10/17 01:34:05;;;;;;;8.98;4.68;;;;;;;7.11;51.90;100888.44;5051491;28;20103;-60
2022/10/17 01:36:39;;;;;;;10.57;4.88;;;;;;;7.15;51.79;100879.34;5051980;28;20086;-61
2022/10/17 01:39:40;;;;;;;8.38;4.70;;;;;;;7.17;51.58;100872.13;5035328;28;20030;-61
2022/10/17 01:42:22;;;;;;;9.13;4.57;;;;;;;7.07;52.08;100876.22;5023942;28;20064;-61
2022/10/17 01:45:00;;;;;;;6.80;4.63;;;;;;;7.07;52.18;100869.06;5050194;28;20033;-61
2022/10/17 01:47:30;;;;;;;8.15;4.57;;;;;;;7.00;52.45;100859.66;5051078;28;20060;-62
2022/10/17 01:50:01;;;;;;;9.77;4.88;;;;;;;7.04;52.51;100861.22;5043961;28;20121;-60
2022/10/17 01:52:36;;;;;;;7.50;4.72;;;;;;;7.04;52.53;100861.22;5049312;28;20095;-62
2022/10/17 01:55:13;;;;;;;6.45;4.32;;;;;;;7.06;52.26;100851.38;5037718;28;20029;-61
2022/10/17 01:57:48;;;;;;;9.25;4.88;;;;;;;6.95;52.74;100829.75;5052333;28;20032;-61
2022/10/17 02:00:15;;;;;;;;;;;;;;;7.27;50.90;100846.78;5052622;28;20107;-61
2022/10/17 02:02:44;;;;;;;7.68;4.68;;;;;;;7.11;51.87;100853.81;5062496;28;20020;-62
2022/10/17 02:05:09;;;;;;;7.10;4.45;;;;;;;6.84;52.22;100828.47;5036190;28;20041;-61
2022/10/17 02:07:35;;;;;;;6.10;4.47;;;;;;;6.94;52.50;100847.50;5051880;28;20029;-66
2022/10/17 02:10:03;;;;;;;8.05;4.68;;;;;;;6.98;52.69;100845.56;5054561;28;20123;-60
2022/10/17 02:12:31;;;;;;;7.90;4.90;;;;;;;6.96;52.61;100847.44;5055078;28;20029;-61
2022/10/17 02:15:20;;;;;;;9.10;4.78;;;;;;;6.97;52.70;100859.81;5040217;28;20041;-60
2022/10/17 02:18:10;;;;;;;10.70;5.30;;;;;;;6.97;52.40;100844.69;5035630;28;20025;-60
2022/10/17 02:20:53;;;;;;;11.35;4.88;;;;;;;7.06;52.39;100847.84;5039025;28;20064;-64
2022/10/17 02:23:24;;;;;;;9.10;4.55;;;;;;;7.02;52.47;100841.81;5055085;28;20455;-62
2022/10/17 02:26:29;;;;;;;14.27;5.47;;;;;;;7.10;52.26;100836.09;5055157;28;20118;-59
2022/10/17 02:29:10;;;;;;;9.20;4.53;;;;;;;7.05;52.39;100844.31;5051818;28;20051;-58
2022/10/17 02:32:08;;;;;;;11.55;4.65;;;;;;;7.11;51.96;100840.50;5035670;28;20422;-72
2022/10/17 02:34:44;;;;;;;6.72;4.72;;;;;;;7.00;52.33;100839.25;5051464;28;20041;-58
2022/10/17 02:37:14;;;;;;;10.52;4.43;;;;;;;7.01;52.42;100850.75;5035202;28;20037;-62
2022/10/17 02:39:42;;;;;;;7.03;4.90;;;;;;;6.89;52.51;100836.22;5052034;28;20087;-61
2022/10/17 02:42:12;;;;;;;7.03;4.65;;;;;;;6.87;52.81;100827.47;5054585;28;20033;-61
2022/10/17 02:44:41;;;;;;;8.52;4.47;;;;;;;6.87;52.90;100840.78;5054595;28;20057;-60
2022/10/17 02:47:28;;;;;;;9.48;4.95;;;;;;;6.93;52.76;100826.31;5043851;28;20091;-68
2022/10/17 02:49:57;;;;;;;9.13;4.68;;;;;;;6.83;53.07;100821.41;5044080;28;20037;-61
2022/10/17 02:52:36;;;;;;;9.77;4.90;;;;;;;6.86;53.01;100810.59;5054674;28;20025;-62
2022/10/17 02:55:22;;;;;;;6.40;4.68;;;;;;;6.87;52.82;100811.47;5055212;28;20040;-61
2022/10/17 02:57:50;;;;;;;;;;;;;;;7.09;51.50;100807.75;5050795;28;20037;-60
2022/10/17 03:00:17;;;;;;;7.25;4.53;;;;;;;6.83;53.08;100804.59;5046144;28;20016;-61
2022/10/17 03:02:46;;;;;;;6.88;4.53;;;;;;;6.72;53.55;100802.47;5039497;28;20108;-57
2022/10/17 03:05:14;;;;;;;6.85;4.82;;;;;;;6.74;53.44;100809.41;5053062;28;20112;-60
2022/10/17 03:07:40;;;;;;;9.75;4.72;;;;;;;6.75;53.52;100811.16;5053402;28;20060;-60
2022/10/17 03:10:06;;;;;;;6.40;4.75;;;;;;;6.70;53.47;100797.19;5048032;28;20033;-59
2022/10/17 03:12:31;;;;;;;7.13;4.75;;;;;;;6.76;53.50;100798.69;5041149;28;20060;-59
2022/10/17 03:14:56;;;;;;;11.90;5.10;;;;;;;6.71;53.36;100774.97;5053141;28;20405;-59
2022/10/17 03:17:22;;;;;;;10.02;4.93;;;;;;;6.82;53.45;100794.88;5040189;28;20052;-59
2022/10/17 03:19:47;;;;;;;7.07;4.85;;;;;;;6.80;53.54;100780.78;5038144;28;20112;-58
2022/10/17 03:22:13;;;;;;;7.88;4.78;;;;;;;6.84;53.15;100790.34;5034163;28;20038;-59
2022/10/17 03:24:38;;;;;;;6.85;4.90;;;;;;;6.81;53.57;100769.22;5036581;28;20033;-68
2022/10/17 03:27:04;;;;;;;6.43;4.45;;;;;;;6.74;53.44;100758.84;5052704;28;20029;-61
2022/10/17 03:29:29;;;;;;;11.75;4.53;;;;;;;6.81;53.17;100761.22;5043279;28;20116;-61
2022/10/17 03:31:54;;;;;;;9.02;5.00;;;;;;;6.82;53.55;100778.91;5051140;28;20083;-56
2022/10/17 03:34:20;;;;;;;10.00;5.18;;;;;;;6.85;53.27;100773.44;5054027;28;20430;-59
2022/10/17 03:36:46;;;;;;;6.88;4.57;;;;;;;6.87;53.32;100763.56;5054159;28;20408;-56
2022/10/17 03:39:11;;;;;;;8.00;5.13;;;;;;;6.92;53.13;100758.88;5053722;28;20036;-61
2022/10/17 03:41:37;;;;;;;10.73;5.75;;;;;;;6.97;52.75;100755.97;5054302;28;20056;-60
2022/10/17 03:44:02;;;;;;;7.07;4.40;;;;;;;6.85;52.49;100737.00;5051979;28;20056;-61
2022/10/17 03:46:28;;;;;;;9.07;4.68;;;;;;;6.95;52.92;100749.88;5050272;28;20711;-60
2022/10/17 03:48:53;;;;;;;8.75;5.18;;;;;;;6.94;53.01;100764.13;5041802;28;20033;-62
2022/10/17 03:51:19;;;;;;;11.48;4.60;;;;;;;6.93;52.97;100741.09;5038732;28;20421;-61
2022/10/17 03:53:44;;;;;;;7.97;4.78;;;;;;;7.03;52.77;100755.66;5068910;28;20037;-61
2022/10/17 03:56:11;;;;;;;8.90;4.70;;;;;;;7.01;53.02;100761.09;5054078;28;20029;-61
2022/10/17 03:58:37;;;;;;;9.38;5.25;;;;;;;6.97;52.80;100751.50;5043006;28;20049;-59
2022/10/17 04:01:07;;;;;;;14.73;5.63;;;;;;;6.81;52.84;100721.28;5033400;28;20048;-60
2022/10/17 04:03:33;;;;;;;6.30;4.65;;;;;;;6.99;52.93;100740.78;5046924;28;20029;-60
2022/10/17 04:06:00;;;;;;;8.43;5.03;;;;;;;7.06;52.53;100736.88;5040739;28;20736;-61
2022/10/17 04:08:26;;;;;;;8.20;4.43;;;;;;;6.97;52.77;100730.19;5033416;28;20037;-60
2022/10/17 04:10:51;;;;;;;9.95;5.10;;;;;;;6.82;52.89;100701.72;5035003;28;20082;-61
2022/10/17 04:13:17;;;;;;;7.32;4.35;;;;;;;6.98;52.89;100737.25;5051835;28;20373;-61
2022/10/17 04:15:53;;;;;;;8.00;4.97;;;;;;;7.08;53.21;100742.13;5051626;28;20036;-61
2022/10/17 04:18:18;;;;;;;8.20;5.35;;;;;;;7.03;52.65;100729.91;5052737;28;20029;-66
2022/10/17 04:20:43;;;;;;;8.13;5.00;;;;;;;7.01;53.08;100726.47;5052880;28;20078;-66
2022/10/17 04:23:09;;;;;;;8.93;5.22;;;;;;;6.99;52.88;100736.34;5057206;28;20363;-58
2022/10/17 04:25:34;;;;;;;9.57;5.22;;;;;;;6.99;53.00;100731.00;5053038;28;20546;-62
2022/10/17 04:27:59;;;;;;;8.38;5.15;;;;;;;6.98;53.02;100718.63;5039942;28;20048;-63
2022/10/17 04:30:25;;;;;;;8.43;5.00;;;;;;;7.00;53.05;100719.44;5036450;28;20367;-65
2022/10/17 04:32:50;;;;;;;10.50;4.75;;;;;;;6.86;52.94;100687.31;5039050;28;20106;-65
2022/10/17 04:35:16;;;;;;;9.70;5.38;;;;;;;7.09;52.95;100699.41;5051894;28;20036;-72
2022/10/17 04:37:41;;;;;;;19.13;5.65;;;;;;;7.15;52.60;100708.91;5052915;28;20124;-70
2022/10/17 04:40:07;;;;;;;12.70;4.65;;;;;;;7.18;52.35;100706.94;5051133;28;20041;-71
2022/10/17 04:42:33;;;;;;;9.13;4.75;;;;;;;7.19;52.75;100715.78;5051274;28;20064;-71
2022/10/17 04:44:58;;;;;;;7.40;4.85;;;;;;;7.25;52.46;100698.63;5032687;28;20033;-71
2022/10/17 04:47:24;;;;;;;8.18;4.97;;;;;;;7.29;52.16;100706.38;5039102;28;20099;-72
2022/10/17 04:49:49;;;;;;;8.32;5.25;;;;;;;7.27;52.36;100707.41;5051974;28;20064;-70
2022/10/17 04:52:15;;;;;;;9.02;4.85;;;;;;;7.34;52.14;100698.13;5032450;28;20033;-73
2022/10/17 04:54:40;;;;;;;8.20;4.93;;;;;;;7.38;52.18;100699.72;5040169;28;20077;-72
2022/10/17 04:57:05;;;;;;;7.78;4.82;;;;;;;7.23;52.20;100669.41;5050968;28;20091;-73
2022/10/17 04:59:31;;;;;;;8.45;4.82;;;;;;;7.49;51.90;100707.13;5042427;28;20117;-71
2022/10/17 05:01:56;;;;;;;6.47;4.57;;;;;;;7.56;51.65;100696.97;5032686;28;20356;-72
2022/10/17 05:04:22;;;;;;;8.95;4.78;;;;;;;7.58;51.47;100701.28;5032285;28;20025;-72
2022/10/17 05:06:47;;;;;;;7.70;5.07;;;;;;;7.59;51.44;100689.69;5032349;28;20044;-72
2022/10/17 05:09:12;;;;;;;12.23;5.40;;;;;;;7.58;51.55;100679.97;5032881;28;20503;-71
2022/10/17 05:11:38;;;;;;;10.35;5.45;;;;;;;7.66;51.43;100686.69;5034475;28;20112;-72
2022/10/17 05:14:03;;;;;;;9.63;5.47;;;;;;;7.65;51.47;100684.97;5031916;28;20112;-73
2022/10/17 05:16:29;;;;;;;8.00;5.25;;;;;;;7.60;51.54;100678.09;5032199;28;20049;-73
2022/10/17 05:18:56;;;;;;;11.35;5.40;;;;;;;7.64;51.35;100685.91;5041817;28;20029;-70
2022/10/17 05:21:24;;;;;;;10.57;5.25;;;;;;;7.57;51.66;100670.25;5051797;28;20040;-73
2022/10/17 05:23:49;;;;;;;12.32;5.68;;;;;;;7.63;51.61;100662.88;5035513;28;20109;-73
2022/10/17 05:26:15;;;;;;;11.50;5.95;;;;;;;7.69;51.79;100655.41;5031160;28;20456;-67
2022/10/17 05:28:40;;;;;;;9.20;5.40;;;;;;;7.72;51.50;100663.22;5050207;28;20029;-73
2022/10/17 05:31:08;;;;;;;9.77;5.32;;;;;;;7.78;51.20;100670.03;5048556;28;20364;-72
2022/10/17 05:33:35;;;;;;;9.73;5.38;;;;;;;7.84;50.91;100669.69;5032043;28;20041;-71
2022/10/17 05:36:00;;;;;;;10.25;5.93;;;;;;;7.85;51.32;100670.56;5037756;28;20028;-71
2022/10/17 05:38:26;;;;;;;10.13;5.22;;;;;;;7.89;51.08;100675.63;5050310;28;20106;-72
2022/10/17 05:40:57;;;;;;;10.23;5.70;;;;;;;7.96;50.92;100652.13;5032135;28;20106;-70
2022/10/17 05:43:22;;;;;;;10.52;5.32;;;;;;;7.98;50.70;100644.06;5032010;28;20154;-70
2022/10/17 05:45:48;;;;;;;6.05;4.68;;;;;;;7.88;50.54;100615.22;5035345;28;20092;-70
2022/10/17 05:48:13;;;;;;;10.02;5.40;;;;;;;8.09;50.22;100625.63;5052380;28;20440;-71
2022/10/17 05:50:38;;;;;;;11.48;5.55;;;;;;;8.19;50.21;100640.13;5033326;28;20075;-69
2022/10/17 05:53:04;;;;;;;11.02;5.53;;;;;;;8.30;49.88;100633.34;5041498;28;20415;-72
2022/10/17 05:55:29;;;;;;;12.13;5.18;;;;;;;8.38;49.58;100627.56;5042369;28;20038;-72
2022/10/17 05:57:55;;;;;;;8.82;5.38;;;;;;;8.45;49.52;100627.13;5043516;28;20116;-71
2022/10/17 06:00:21;;;;;;;11.35;5.78;;;;;;;8.59;48.80;100612.09;5032272;28;20164;-70
2022/10/17 06:02:47;;;;;;;9.23;5.40;;;;;;;8.97;48.27;100641.00;5032290;28;20052;-72
2022/10/17 06:05:13;;;;;;;12.63;5.18;;;;;;;9.12;47.71;100638.31;5031768;28;20356;-71
2022/10/17 06:07:39;;;;;;;13.25;5.68;;;;;;;9.16;48.02;100642.50;5041618;28;20048;-71
2022/10/17 06:10:05;;;;;;;10.27;6.05;;;;;;;9.13;47.98;100643.56;5040774;28;20033;-72
2022/10/17 06:12:30;;;;;;;11.18;5.72;;;;;;;9.15;48.29;100632.78;5032646;28;20048;-72
2022/10/17 06:14:56;;;;;;;8.70;4.68;;;;;;;9.18;47.74;100641.47;5030791;28;20033;-71
2022/10/17 06:17:21;;;;;;;11.25;5.20;;;;;;;9.16;47.80;100619.34;5037478;28;20099;-71
2022/10/17 06:19:47;;;;;;;11.07;5.35;;;;;;;9.16;47.75;100639.84;5050932;28;20395;-72
2022/10/17 06:22:13;;;;;;;9.48;5.22;;;;;;;9.09;47.94;100620.69;5034933;28;20039;-71
2022/10/17 06:24:39;;;;;;;12.07;6.15;;;;;;;8.94;48.13;100595.78;5050111;28;20884;-72
2022/10/17 06:27:04;;;;;;;8.23;5.28;;;;;;;9.09;47.91;100628.69;5034324;28;20469;-72
2022/10/17 06:29:29;;;;;;;11.80;5.53;;;;;;;9.02;48.52;100614.84;5051412;28;20375;-72
2022/10/17 06:31:55;;;;;;;9.88;5.82;;;;;;;9.07;48.12;100632.41;5049700;28;20426;-73
2022/10/17 06:34:20;;;;;;;9.38;5.07;;;;;;;9.05;48.22;100628.00;5035201;28;20103;-65
2022/10/17 06:36:46;;;;;;;13.10;5.78;;;;;;;9.12;48.16;100635.66;5031081;28;20128;-74
2022/10/17 06:39:12;;;;;;;11.57;5.95;;;;;;;9.15;48.11;100643.47;5038269;28;20060;-74
2022/10/17 06:41:39;;;;;;;13.15;5.60;;;;;;;9.16;47.92;100621.13;5054408;28;20178;-71
2022/10/17 06:44:09;;;;;;;7.95;5.22;;;;;;;9.23;47.80;100617.16;5055218;28;20478;-73
2022/10/17 06:46:36;;;;;;;13.95;5.97;;;;;;;9.23;47.72;100603.78;5055024;28;20090;-73
2022/10/17 06:49:03;;;;;;;12.52;5.70;;;;;;;9.14;47.78;100572.28;5054060;28;20029;-72
2022/10/17 06:51:29;;;;;;;9.65;5.22;;;;;;;9.31;47.69;100587.28;5065244;28;20037;-71
2022/10/17 06:53:57;;;;;;;9.70;5.30;;;;;;;9.53;47.33;100581.41;5035071;28;20049;-72
2022/10/17 06:56:23;;;;;;;11.63;4.97;;;;;;;9.65;46.65;100585.13;5045421;28;20368;-75
2022/10/17 06:58:50;;;;;;;14.85;5.95;;;;;;;9.75;46.56;100580.88;5044272;28;20029;-73
2022/10/17 07:01:16;;;;;;;14.90;5.60;;;;;;;10.05;46.06;100585.19;5044423;28;20542;-73
2022/10/17 07:03:45;;;;;;;13.07;5.45;;;;;;;10.31;45.18;100597.78;5040432;28;20456;-73
2022/10/17 07:06:10;;;;;;;9.25;5.25;;;;;;;10.31;44.94;100554.94;5035125;28;20039;-72
2022/10/17 07:08:36;;;;;;;11.57;5.40;;;;;;;10.59;44.40;100591.44;5035606;28;20034;-73
2022/10/17 07:11:09;;;;;;;11.25;4.82;;;;;;;10.60;44.90;100582.44;5038565;28;20041;-72
2022/10/17 07:13:35;;;;;;;9.55;5.70;;;;;;;10.53;44.75;100599.91;5057587;28;20032;-71
2022/10/17 07:16:00;;;;;;;10.75;5.55;;;;;;;10.38;44.87;100599.09;5071572;28;20036;-71
2022/10/17 07:18:26;;;;;;;11.55;5.32;;;;;;;10.30;45.63;100585.34;5071576;28;20451;-71
2022/10/17 07:20:53;;;;;;;14.05;6.10;;;;;;;10.28;45.55;100582.78;5044948;28;20126;-69
2022/10/17 07:23:19;;;;;;;12.20;5.93;;;;;;;10.29;45.64;100584.50;5065872;28;20466;-72
2022/10/17 07:25:44;;;;;;;11.55;5.65;;;;;;;10.18;45.72;100582.56;5052778;28;20029;-70
2022/10/17 07:28:10;;;;;;;13.80;6.13;;;;;;;10.14;46.30;100594.41;5041429;28;20448;-67
2022/10/17 07:30:35;;;;;;;11.73;5.85;;;;;;;9.95;46.65;100586.72;5039024;28;20362;-67
2022/10/17 07:33:01;;;;;;;11.25;5.63;;;;;;;9.93;46.90;100577.97;5050412;28;20029;-67
2022/10/17 07:35:26;;;;;;;14.02;5.65;;;;;;;9.96;46.70;100575.06;5037890;28;20481;-66
2022/10/17 07:37:52;;;;;;;13.60;5.53;;;;;;;9.87;47.07;100551.63;5053691;28;20072;-68
2022/10/17 07:40:17;;;;;;;15.93;5.88;;;;;;;10.01;46.63;100564.06;5054315;28;20049;-68
2022/10/17 07:42:43;;;;;;;14.15;5.80;;;;;;;9.98;46.85;100562.44;5054442;28;20403;-67
2022/10/17 07:45:09;;;;;;;9.15;4.93;;;;;;;10.02;47.03;100584.53;5054351;28;20120;-67
2022/10/17 07:47:34;;;;;;;16.58;5.90;;;;;;;10.00;46.82;100575.75;5054119;28;20040;-66
2022/10/17 07:50:01;;;;;;;17.10;5.78;;;;;;;9.97;47.24;100573.28;5054216;28;20075;-67
2022/10/17 07:52:27;;;;;;;13.57;5.93;;;;;;;9.97;47.13;100570.59;5053348;28;20037;-66
2022/10/17 07:54:53;;;;;;;13.18;5.90;;;;;;;9.92;47.24;100568.22;5054137;28;20104;-67
2022/10/17 07:57:18;;;;;;;9.82;6.07;;;;;;;9.84;47.46;100560.69;5050619;28;20028;-71
2022/10/17 07:59:44;;;;;;;11.13;5.32;;;;;;;9.79;47.38;100565.50;5053582;28;20430;-68
2022/10/17 08:02:29;;;;;;;12.80;5.90;;;;;;;9.82;48.31;100567.97;5053045;28;20511;-66
2022/10/17 08:04:55;;;;;;;11.27;5.75;;;;;;;9.71;49.35;100575.84;5048231;28;20414;-66
2022/10/17 08:07:20;;;;;;;12.50;6.10;;;;;;;9.48;50.38;100554.13;5054133;28;20025;-67
2022/10/17 08:09:46;;;;;;;12.68;6.07;;;;;;;9.54;51.56;100577.78;5053391;28;20499;-67
2022/10/17 08:12:15;;;;;;;15.63;6.45;;;;;;;9.40;52.85;100570.66;5053291;28;20041;-67
2022/10/17 08:14:42;;;;;;;21.10;6.57;;;;;;;9.22;54.02;100527.25;5052770;28;20112;-67
2022/10/17 08:17:08;;;;;;;16.08;6.85;;;;;;;9.18;54.91;100533.75;5052444;28;20021;-67
2022/10/17 08:19:36;;;;;;;18.65;7.15;;;;;;;9.38;54.48;100556.53;5053766;28;20115;-66
2022/10/17 08:22:02;;;;;;;14.07;6.40;;;;;;;9.35;54.45;100583.47;5052600;28;20033;-68
2022/10/17 08:24:27;;;;;;;17.33;6.53;;;;;;;9.31;54.35;100574.75;5053577;28;20037;-68
2022/10/17 08:26:52;;;;;;;11.20;7.63;;;;;;;9.33;54.19;100555.97;5069514;28;20033;-66
2022/10/17 08:29:18;;;;;;;15.40;6.90;;;;;;;9.30;54.39;100554.34;5052424;28;20094;-67
2022/10/17 08:31:44;;;;;;;18.50;6.82;;;;;;;9.31;54.59;100564.06;5053837;28;20025;-68
2022/10/17 08:34:09;;;;;;;18.08;7.53;;;;;;;9.40;55.52;100559.09;5053375;28;20033;-67
2022/10/17 08:36:35;;;;;;;15.82;7.25;;;;;;;9.44;54.41;100563.31;5052428;28;20029;-67
2022/10/17 08:39:01;;;;;;;16.02;6.57;;;;;;;9.38;54.50;100561.00;5052435;28;20021;-66
2022/10/17 08:41:30;;;;;;;17.17;7.53;;;;;;;9.42;54.82;100555.38;5053109;28;20456;-66
2022/10/17 08:44:07;;;;;;;15.23;7.28;;;;;;;9.46;54.32;100542.69;5053203;28;20044;-66
2022/10/17 08:46:39;;;;;;;17.45;7.38;;;;;;;9.41;54.23;100537.63;5052338;28;20125;-68
2022/10/17 08:49:18;;;;;;;12.93;6.97;;;;;;;9.40;54.00;100527.88;5053683;28;20040;-66
2022/10/17 08:51:51;;;;;;;15.52;7.28;;;;;;;9.47;54.04;100549.75;5036004;28;20053;-66
2022/10/17 08:54:38;;;;;;;10.18;6.50;;;;;;;9.53;53.76;100543.16;5053092;28;20040;-65
2022/10/17 08:57:03;;;;;;;13.18;6.97;;;;;;;9.28;53.80;100545.56;5052158;28;20060;-66
2022/10/17 08:59:30;;;;;;;17.15;7.60;;;;;;;9.38;54.42;100561.00;5053538;28;20483;-66
2022/10/17 09:02:36;;;;;;;15.32;7.50;;;;;;;9.47;54.12;100565.78;5052911;28;20048;-66
2022/10/17 09:05:23;;;;;;;13.60;7.95;;;;;;;9.47;54.35;100565.78;5019470;28;20049;-66
2022/10/17 09:08:00;;;;;;;19.90;8.25;;;;;;;9.41;55.44;100563.50;5053121;28;20071;-67
2022/10/17 09:10:37;;;;;;;12.82;8.07;;;;;;;9.26;56.58;100558.16;5052356;28;20029;-67
2022/10/17 09:13:18;;;;;;;17.27;8.30;;;;;;;9.16;57.27;100547.19;5051842;28;20037;-66
2022/10/17 09:15:49;;;;;;;17.58;8.43;;;;;;;9.06;58.08;100540.75;5052652;28;20037;-67
2022/10/17 09:18:22;;;;;;;20.80;9.38;;;;;;;9.00;58.72;100541.09;5051870;28;20028;-66
2022/10/17 09:20:56;;;;;;;16.42;9.15;;;;;;;9.01;59.52;100546.34;5052979;28;20301;-66
2022/10/17 09:23:30;;;;;;;13.32;8.80;;;;;;;9.00;60.16;100533.97;5052953;28;20102;-66
2022/10/17 09:25:58;;;;;;;23.02;10.73;;;;;;;9.04;60.78;100546.16;5052545;28;20032;-67
2022/10/17 09:28:32;;;;;;;18.63;9.63;;;;;;;9.09;60.38;100535.19;5052681;28;20043;-66
2022/10/17 09:31:10;;;;;;;17.27;9.40;;;;;;;9.01;61.01;100551.69;5051651;28;20086;-65
2022/10/17 09:33:41;;;;;;;22.67;9.52;;;;;;;9.01;62.31;100554.38;5052382;28;20033;-65
2022/10/17 09:36:31;;;;;;;14.20;9.25;;;;;;;9.11;61.29;100545.78;5052411;28;20025;-65
2022/10/17 09:39:32;;;;;;;15.32;9.10;;;;;;;9.06;61.89;100535.41;5047270;28;20049;-66
2022/10/17 09:42:00;;;;;;;14.30;8.52;;;;;;;9.10;61.56;100536.91;5051852;28;20525;-64
2022/10/17 09:44:32;;;;;;;16.15;9.07;;;;;;;9.25;61.81;100524.38;5052656;28;20041;-66
2022/10/17 09:47:13;;;;;;;15.48;9.15;;;;;;;9.35;61.17;100519.31;5052158;28;20454;-65
2022/10/17 09:49:41;;;;;;;15.88;8.45;;;;;;;9.34;60.96;100529.13;5052078;28;20032;-64
2022/10/17 09:52:16;;;;;;;16.67;9.27;;;;;;;9.31;61.48;100524.00;5051407;28;20025;-66
2022/10/17 09:54:46;;;;;;;13.02;8.00;;;;;;;9.23;61.66;100523.63;5052385;28;20029;-66
2022/10/17 09:57:13;;;;;;;19.23;8.55;;;;;;;9.21;61.51;100506.84;5052142;28;20033;-65
2022/10/17 09:59:45;;;;;;;14.23;8.23;;;;;;;9.20;61.54;100510.47;5052396;28;20029;-66
2022/10/17 10:02:13;;;;;;;11.95;8.13;;;;;;;9.14;61.65;100500.16;5051904;28;20048;-65
2022/10/17 10:04:58;;;;;;;14.02;7.88;;;;;;;9.11;61.61;100497.69;5051984;28;20130;-66
2022/10/17 10:07:27;;;;;;;13.45;8.15;;;;;;;9.01;61.53;100481.38;5052191;28;20501;-65
2022/10/17 10:09:53;;;;;;;14.35;8.35;;;;;;;8.93;62.54;100497.91;5049229;28;20358;-65
2022/10/17 10:12:28;;;;;;;15.73;8.15;;;;;;;8.94;61.81;100467.59;5048573;28;20104;-66
2022/10/17 10:14:53;;;;;;;13.18;8.38;;;;;;;9.14;62.24;100481.44;5054529;28;20035;-66
2022/10/17 10:17:25;;;;;;;14.35;8.48;;;;;;;9.29;61.81;100484.97;5056079;28;20037;-64
2022/10/17 10:19:51;;;;;;;15.40;8.70;;;;;;;9.37;61.57;100473.75;5054411;28;20033;-66
2022/10/17 10:22:19;;;;;;;15.30;8.60;;;;;;;9.44;61.13;100469.75;5034885;28;20036;-63
2022/10/17 10:24:45;;;;;;;14.13;7.97;;;;;;;9.49;60.73;100478.31;5035465;28;20120;-66
2022/10/17 10:27:17;;;;;;;13.70;8.15;;;;;;;9.54;60.56;100476.19;5055690;28;20117;-65
2022/10/17 10:29:50;;;;;;;14.45;8.18;;;;;;;9.55;60.70;100456.53;5042320;28;20032;-66
2022/10/17 10:32:23;;;;;;;19.95;8.95;;;;;;;9.53;60.64;100453.09;5051228;28;20041;-66
2022/10/17 10:34:51;;;;;;;15.18;8.45;;;;;;;9.54;60.40;100457.50;5035868;28;20057;-65
2022/10/17 10:37:21;;;;;;;12.68;8.38;;;;;;;9.48;60.63;100455.22;5035884;28;20035;-66
2022/10/17 10:39:53;;;;;;;12.43;8.70;;;;;;;9.59;60.35;100442.00;5049451;28;20025;-66
2022/10/17 10:42:27;;;;;;;13.55;8.93;;;;;;;9.52;60.71;100456.72;5035709;28;20037;-66
2022/10/17 10:44:56;;;;;;;17.10;9.20;;;;;;;9.53;60.87;100458.44;5035073;28;20873;-66
2022/10/17 10:47:28;;;;;;;13.77;8.93;;;;;;;9.58;60.88;100460.81;5035144;28;20045;-66
2022/10/17 10:50:16;;;;;;;17.30;9.07;;;;;;;9.63;60.65;100448.84;5043013;28;20087;-64
2022/10/17 10:52:53;;;;;;;14.15;8.70;;;;;;;9.58;60.39;100445.63;5042430;28;20605;-71
2022/10/17 10:55:29;;;;;;;15.02;8.18;;;;;;;9.50;60.82;100415.88;5047244;28;20141;-71
2022/10/17 10:58:00;;;;;;;15.05;9.30;;;;;;;9.57;61.03;100433.22;5053436;28;20024;-66
2022/10/17 11:00:27;;;;;;;12.65;8.70;;;;;;;9.54;60.92;100430.75;5036255;28;20039;-65
2022/10/17 11:03:09;;;;;;;13.02;8.25;;;;;;;9.61;60.80;100431.22;5043426;28;20033;-65
2022/10/17 11:05:56;;;;;;;14.52;8.57;;;;;;;9.55;61.30;100428.97;5041069;28;20036;-65
2022/10/17 11:08:37;;;;;;;16.58;9.30;;;;;;;9.54;60.86;100428.09;5065986;28;20393;-66
2022/10/17 11:11:17;;;;;;;14.98;9.00;;;;;;;9.59;61.14;100425.94;5049532;28;20039;-69
2022/10/17 11:14:05;;;;;;;18.30;8.35;;;;;;;9.62;61.06;100420.41;5050328;28;20044;-65
2022/10/17 11:16:31;;;;;;;16.35;8.77;;;;;;;9.57;61.67;100417.19;5034960;28;20115;-66
2022/10/17 11:19:06;;;;;;;13.57;8.75;;;;;;;9.61;61.36;100424.03;5035101;28;20072;-65
2022/10/17 11:21:42;;;;;;;16.83;8.57;;;;;;;9.70;61.62;100435.94;5054204;28;20032;-68
2022/10/17 11:24:22;;;;;;;17.13;9.02;;;;;;;9.67;61.56;100422.78;5045173;28;20041;-64
2022/10/17 11:26:59;;;;;;;13.70;9.10;;;;;;;9.65;62.03;100429.19;5052116;28;20493;-66
2022/10/17 11:29:35;;;;;;;17.90;9.35;;;;;;;9.64;62.11;100422.97;5059131;28;20036;-64
2022/10/17 11:32:18;;;;;;;;;;;;;;;9.94;60.21;100434.38;5035381;28;20043;-64
2022/10/17 11:34:51;;;;;;;12.82;8.32;;;;;;;9.71;61.70;100423.44;5058753;28;20258;-65
2022/10/17 11:37:27;;;;;;;14.70;10.10;;;;;;;9.68;62.18;100418.28;5069980;28;20028;-67
2022/10/17 11:39:58;;;;;;;14.27;9.40;;;;;;;9.59;62.46;100412.59;5053974;28;20047;-67
2022/10/17 11:42:33;;;;;;;19.02;9.00;;;;;;;9.57;62.79;100408.31;5054241;28;20041;-67